sensor_id;sensor_type;location;lat;lon;timestamp;temperature;humidity
1453;DHT22;720;47.738;7.998;2022-08-30T00:00:52;16.90;99.90
1453;DHT22;720;47.738;7.998;2022-08-30T00:03:29;16.90;99.90
1453;DHT22;720;47.738;7.998;2022-08-30T00:05:55;16.90;99.90
1453;DHT22;720;47.738;7.998;2022-08-30T00:08:20;16.90;99.90
1453;DHT22;720;47.738;7.998;2022-08-30T00:10:47;16.90;99.90
1453;DHT22;720;47.738;7.998;2022-08-30T00:13:16;16.90;99.90
1453;DHT22;720;47.738;7.998;2022-08-30T00:15:42;16.90;99.90
1453;DHT22;720;47.738;7.998;2022-08-30T00:18:08;16.90;99.90
1453;DHT22;720;47.738;7.998;2022-08-30T00:20:35;16.90;99.90
1453;DHT22;720;47.738;7.998;2022-08-30T00:23:01;17.00;99.90
1453;DHT22;720;47.738;7.998;2022-08-30T00:25:27;17.00;99.90
1453;DHT22;720;47.738;7.998;2022-08-30T00:27:53;17.00;99.90
1453;DHT22;720;47.738;7.998;2022-08-30T00:30:20;17.00;99.90
1453;DHT22;720;47.738;7.998;2022-08-30T00:32:46;17.00;99.90
1453;DHT22;720;47.738;7.998;2022-08-30T00:35:18;16.90;99.90
1453;DHT22;720;47.738;7.998;2022-08-30T00:37:45;16.80;99.90
1453;DHT22;720;47.738;7.998;2022-08-30T00:40:11;16.80;99.90
1453;DHT22;720;47.738;7.998;2022-08-30T00:42:40;16.70;99.90
1453;DHT22;720;47.738;7.998;2022-08-30T00:45:19;16.70;99.90
1453;DHT22;720;47.738;7.998;2022-08-30T00:47:45;16.80;99.90
1453;DHT22;720;47.738;7.998;2022-08-30T00:50:13;16.80;99.90
1453;DHT22;720;47.738;7.998;2022-08-30T00:52:41;16.80;99.90
1453;DHT22;720;47.738;7.998;2022-08-30T00:55:08;16.80;99.90
1453;DHT22;720;47.738;7.998;2022-08-30T00:57:34;16.80;99.90
1453;DHT22;720;47.738;7.998;2022-08-30T01:00:03;16.70;99.90
1453;DHT22;720;47.738;7.998;2022-08-30T01:02:29;16.70;99.90
1453;DHT22;720;47.738;7.998;2022-08-30T01:04:55;16.70;99.90
1453;DHT22;720;47.738;7.998;2022-08-30T01:07:22;16.70;99.90
1453;DHT22;720;47.738;7.998;2022-08-30T01:09:47;16.70;99.90
1453;DHT22;720;47.738;7.998;2022-08-30T01:12:13;16.80;99.90
1453;DHT22;720;47.738;7.998;2022-08-30T01:14:39;16.80;99.90
1453;DHT22;720;47.738;7.998;2022-08-30T01:17:05;16.70;99.90
1453;DHT22;720;47.738;7.998;2022-08-30T01:19:52;16.70;99.90
1453;DHT22;720;47.738;7.998;2022-08-30T01:25:15;16.80;99.90
1453;DHT22;720;47.738;7.998;2022-08-30T01:27:46;16.80;99.90
1453;DHT22;720;47.738;7.998;2022-08-30T01:30:14;16.70;99.90
1453;DHT22;720;47.738;7.998;2022-08-30T01:32:43;16.70;99.90
1453;DHT22;720;47.738;7.998;2022-08-30T01:35:16;16.70;99.90
1453;DHT22;720;47.738;7.998;2022-08-30T01:37:42;16.70;99.90
1453;DHT22;720;47.738;7.998;2022-08-30T01:40:09;16.70;99.90
1453;DHT22;720;47.738;7.998;2022-08-30T01:42:35;16.70;99.90
1453;DHT22;720;47.738;7.998;2022-08-30T01:45:01;16.60;99.90
1453;DHT22;720;47.738;7.998;2022-08-30T01:47:26;16.70;99.90
1453;DHT22;720;47.738;7.998;2022-08-30T01:49:52;16.70;99.90
1453;DHT22;720;47.738;7.998;2022-08-30T01:52:18;16.80;99.90
1453;DHT22;720;47.738;7.998;2022-08-30T01:54:45;16.90;99.90
1453;DHT22;720;47.738;7.998;2022-08-30T01:57:13;16.90;99.90
1453;DHT22;720;47.738;7.998;2022-08-30T01:59:41;16.90;99.90
1453;DHT22;720;47.738;7.998;2022-08-30T02:02:08;16.80;99.90
1453;DHT22;720;47.738;7.998;2022-08-30T02:04:35;16.80;99.90
1453;DHT22;720;47.738;7.998;2022-08-30T02:07:02;16.80;99.90
1453;DHT22;720;47.738;7.998;2022-08-30T02:09:28;16.80;99.90
1453;DHT22;720;47.738;7.998;2022-08-30T02:11:54;16.70;99.90
1453;DHT22;720;47.738;7.998;2022-08-30T02:14:20;16.70;99.90
1453;DHT22;720;47.738;7.998;2022-08-30T02:16:45;16.70;99.90
1453;DHT22;720;47.738;7.998;2022-08-30T02:19:11;16.70;99.90
1453;DHT22;720;47.738;7.998;2022-08-30T02:21:37;16.60;99.90
1453;DHT22;720;47.738;7.998;2022-08-30T02:24:03;16.60;99.90
1453;DHT22;720;47.738;7.998;2022-08-30T02:26:28;16.60;99.90
1453;DHT22;720;47.738;7.998;2022-08-30T02:28:54;16.70;99.90
1453;DHT22;720;47.738;7.998;2022-08-30T02:31:21;16.70;99.90
1453;DHT22;720;47.738;7.998;2022-08-30T02:33:48;16.80;99.90
1453;DHT22;720;47.738;7.998;2022-08-30T02:36:14;16.70;99.90
1453;DHT22;720;47.738;7.998;2022-08-30T02:38:40;16.70;99.90
1453;DHT22;720;47.738;7.998;2022-08-30T02:41:06;16.70;99.90
1453;DHT22;720;47.738;7.998;2022-08-30T02:43:32;16.60;99.90
1453;DHT22;720;47.738;7.998;2022-08-30T02:45:57;16.60;99.90
1453;DHT22;720;47.738;7.998;2022-08-30T02:48:23;16.60;99.90
1453;DHT22;720;47.738;7.998;2022-08-30T02:50:51;16.60;99.90
1453;DHT22;720;47.738;7.998;2022-08-30T02:53:17;16.60;99.90
1453;DHT22;720;47.738;7.998;2022-08-30T02:55:43;16.50;99.90
1453;DHT22;720;47.738;7.998;2022-08-30T02:58:09;16.50;99.90
1453;DHT22;720;47.738;7.998;2022-08-30T03:00:35;16.50;99.90
1453;DHT22;720;47.738;7.998;2022-08-30T03:03:02;16.50;99.90
1453;DHT22;720;47.738;7.998;2022-08-30T03:05:29;16.60;99.90
1453;DHT22;720;47.738;7.998;2022-08-30T03:07:56;16.70;99.90
1453;DHT22;720;47.738;7.998;2022-08-30T03:10:21;16.80;99.90
1453;DHT22;720;47.738;7.998;2022-08-30T03:12:47;16.70;99.90
1453;DHT22;720;47.738;7.998;2022-08-30T03:15:16;16.60;99.90
1453;DHT22;720;47.738;7.998;2022-08-30T03:17:42;16.50;99.90
1453;DHT22;720;47.738;7.998;2022-08-30T03:20:08;16.50;99.90
1453;DHT22;720;47.738;7.998;2022-08-30T03:22:34;16.50;99.90
1453;DHT22;720;47.738;7.998;2022-08-30T03:25:01;16.60;99.90
1453;DHT22;720;47.738;7.998;2022-08-30T03:27:27;16.60;99.90
1453;DHT22;720;47.738;7.998;2022-08-30T03:29:54;16.60;99.90
1453;DHT22;720;47.738;7.998;2022-08-30T03:32:20;16.50;99.90
1453;DHT22;720;47.738;7.998;2022-08-30T03:34:46;16.50;99.90
1453;DHT22;720;47.738;7.998;2022-08-30T03:37:12;16.60;99.90
1453;DHT22;720;47.738;7.998;2022-08-30T03:39:39;16.50;99.90
1453;DHT22;720;47.738;7.998;2022-08-30T03:42:05;16.60;99.90
1453;DHT22;720;47.738;7.998;2022-08-30T03:44:31;16.60;99.90
1453;DHT22;720;47.738;7.998;2022-08-30T03:46:58;16.70;99.90
1453;DHT22;720;47.738;7.998;2022-08-30T03:49:23;16.80;99.90
1453;DHT22;720;47.738;7.998;2022-08-30T03:51:49;16.80;99.90
1453;DHT22;720;47.738;7.998;2022-08-30T03:54:15;16.60;99.90
1453;DHT22;720;47.738;7.998;2022-08-30T03:56:42;16.50;99.90
1453;DHT22;720;47.738;7.998;2022-08-30T03:59:08;16.60;99.90
1453;DHT22;720;47.738;7.998;2022-08-30T04:01:34;16.70;99.90
1453;DHT22;720;47.738;7.998;2022-08-30T04:04:00;16.60;99.90
1453;DHT22;720;47.738;7.998;2022-08-30T04:06:26;16.50;99.90
1453;DHT22;720;47.738;7.998;2022-08-30T04:08:52;16.60;99.90
1453;DHT22;720;47.738;7.998;2022-08-30T04:11:18;16.50;99.90
1453;DHT22;720;47.738;7.998;2022-08-30T04:13:45;16.50;99.90
1453;DHT22;720;47.738;7.998;2022-08-30T04:16:11;16.50;99.90
1453;DHT22;720;47.738;7.998;2022-08-30T04:18:37;16.60;99.90
1453;DHT22;720;47.738;7.998;2022-08-30T04:21:03;16.70;99.90
1453;DHT22;720;47.738;7.998;2022-08-30T04:23:29;16.70;99.90
1453;DHT22;720;47.738;7.998;2022-08-30T04:25:55;16.70;99.90
1453;DHT22;720;47.738;7.998;2022-08-30T04:28:21;16.70;99.90
1453;DHT22;720;47.738;7.998;2022-08-30T04:30:47;16.70;99.90
1453;DHT22;720;47.738;7.998;2022-08-30T04:33:14;16.70;99.90
1453;DHT22;720;47.738;7.998;2022-08-30T04:35:43;16.80;99.90
1453;DHT22;720;47.738;7.998;2022-08-30T04:38:09;16.90;99.90
1453;DHT22;720;47.738;7.998;2022-08-30T04:40:35;16.90;99.90
1453;DHT22;720;47.738;7.998;2022-08-30T04:43:02;16.90;99.90
1453;DHT22;720;47.738;7.998;2022-08-30T04:45:29;16.90;99.90
1453;DHT22;720;47.738;7.998;2022-08-30T04:47:55;16.90;99.90
1453;DHT22;720;47.738;7.998;2022-08-30T04:50:21;17.00;99.90
1453;DHT22;720;47.738;7.998;2022-08-30T04:52:47;16.90;99.90
1453;DHT22;720;47.738;7.998;2022-08-30T04:55:13;16.90;99.90
1453;DHT22;720;47.738;7.998;2022-08-30T04:57:39;16.80;99.90
1453;DHT22;720;47.738;7.998;2022-08-30T05:00:09;16.90;99.90
1453;DHT22;720;47.738;7.998;2022-08-30T05:02:36;16.90;99.90
1453;DHT22;720;47.738;7.998;2022-08-30T05:05:03;16.90;99.90
1453;DHT22;720;47.738;7.998;2022-08-30T05:07:47;16.90;99.90
1453;DHT22;720;47.738;7.998;2022-08-30T05:10:12;16.90;99.90
1453;DHT22;720;47.738;7.998;2022-08-30T05:12:39;16.90;99.90
1453;DHT22;720;47.738;7.998;2022-08-30T05:15:05;16.90;99.90
1453;DHT22;720;47.738;7.998;2022-08-30T05:17:32;17.00;99.90
1453;DHT22;720;47.738;7.998;2022-08-30T05:20:00;17.10;99.90
1453;DHT22;720;47.738;7.998;2022-08-30T05:22:26;17.20;99.90
1453;DHT22;720;47.738;7.998;2022-08-30T05:24:51;17.20;99.90
1453;DHT22;720;47.738;7.998;2022-08-30T05:27:17;17.20;99.90
1453;DHT22;720;47.738;7.998;2022-08-30T05:29:43;17.30;99.90
1453;DHT22;720;47.738;7.998;2022-08-30T05:32:08;17.40;99.90
1453;DHT22;720;47.738;7.998;2022-08-30T05:34:34;17.60;99.90
1453;DHT22;720;47.738;7.998;2022-08-30T05:37:00;17.80;99.90
1453;DHT22;720;47.738;7.998;2022-08-30T05:39:27;18.00;99.90
1453;DHT22;720;47.738;7.998;2022-08-30T05:41:57;18.10;99.90
1453;DHT22;720;47.738;7.998;2022-08-30T05:44:23;18.20;99.90
1453;DHT22;720;47.738;7.998;2022-08-30T05:46:49;18.30;99.90
1453;DHT22;720;47.738;7.998;2022-08-30T05:49:15;18.40;99.90
1453;DHT22;720;47.738;7.998;2022-08-30T05:51:40;18.40;99.90
1453;DHT22;720;47.738;7.998;2022-08-30T05:54:06;18.50;99.90
1453;DHT22;720;47.738;7.998;2022-08-30T05:56:35;18.70;99.90
1453;DHT22;720;47.738;7.998;2022-08-30T05:59:02;18.90;99.90
1453;DHT22;720;47.738;7.998;2022-08-30T06:01:31;19.00;99.90
1453;DHT22;720;47.738;7.998;2022-08-30T06:03:58;19.10;99.90
1453;DHT22;720;47.738;7.998;2022-08-30T06:06:27;19.20;99.90
1453;DHT22;720;47.738;7.998;2022-08-30T06:08:53;19.20;99.90
1453;DHT22;720;47.738;7.998;2022-08-30T06:11:21;19.40;99.90
1453;DHT22;720;47.738;7.998;2022-08-30T06:13:47;19.50;99.90
1453;DHT22;720;47.738;7.998;2022-08-30T06:16:16;19.60;99.90
1453;DHT22;720;47.738;7.998;2022-08-30T06:18:42;19.70;99.90
1453;DHT22;720;47.738;7.998;2022-08-30T06:21:08;19.80;99.90
1453;DHT22;720;47.738;7.998;2022-08-30T06:23:39;19.80;99.90
1453;DHT22;720;47.738;7.998;2022-08-30T06:26:06;19.80;99.90
1453;DHT22;720;47.738;7.998;2022-08-30T06:28:33;19.90;99.90
1453;DHT22;720;47.738;7.998;2022-08-30T06:30:58;19.90;99.90
1453;DHT22;720;47.738;7.998;2022-08-30T06:33:24;20.20;99.90
1453;DHT22;720;47.738;7.998;2022-08-30T06:35:50;20.50;99.90
1453;DHT22;720;47.738;7.998;2022-08-30T06:38:16;20.90;99.90
1453;DHT22;720;47.738;7.998;2022-08-30T06:40:41;21.30;99.90
1453;DHT22;720;47.738;7.998;2022-08-30T06:43:08;21.60;99.90
1453;DHT22;720;47.738;7.998;2022-08-30T06:45:34;21.90;99.10
1453;DHT22;720;47.738;7.998;2022-08-30T06:48:00;22.20;98.50
1453;DHT22;720;47.738;7.998;2022-08-30T06:50:26;22.50;98.60
1453;DHT22;720;47.738;7.998;2022-08-30T06:52:52;22.80;97.90
1453;DHT22;720;47.738;7.998;2022-08-30T06:55:18;22.90;97.80
1453;DHT22;720;47.738;7.998;2022-08-30T06:57:45;23.00;97.40
1453;DHT22;720;47.738;7.998;2022-08-30T07:00:15;23.10;96.90
1453;DHT22;720;47.738;7.998;2022-08-30T07:02:44;23.10;96.20
1453;DHT22;720;47.738;7.998;2022-08-30T07:05:10;23.20;96.80
1453;DHT22;720;47.738;7.998;2022-08-30T07:07:37;23.30;96.10
1453;DHT22;720;47.738;7.998;2022-08-30T07:10:07;23.40;96.00
1453;DHT22;720;47.738;7.998;2022-08-30T07:12:33;23.60;95.10
1453;DHT22;720;47.738;7.998;2022-08-30T07:14:58;23.70;95.00
1453;DHT22;720;47.738;7.998;2022-08-30T07:17:24;23.70;95.60
1453;DHT22;720;47.738;7.998;2022-08-30T07:20:08;23.90;95.30
1453;DHT22;720;47.738;7.998;2022-08-30T07:22:34;24.00;94.70
1453;DHT22;720;47.738;7.998;2022-08-30T07:25:00;24.10;94.30
1453;DHT22;720;47.738;7.998;2022-08-30T07:27:26;24.20;94.40
1453;DHT22;720;47.738;7.998;2022-08-30T07:29:51;24.30;92.20
1453;DHT22;720;47.738;7.998;2022-08-30T07:32:17;24.40;92.70
1453;DHT22;720;47.738;7.998;2022-08-30T07:34:43;24.70;93.30
1453;DHT22;720;47.738;7.998;2022-08-30T07:37:08;25.00;92.10
1453;DHT22;720;47.738;7.998;2022-08-30T07:39:34;25.20;90.60
1453;DHT22;720;47.738;7.998;2022-08-30T07:42:00;25.30;89.80
1453;DHT22;720;47.738;7.998;2022-08-30T07:44:26;25.40;92.50
1453;DHT22;720;47.738;7.998;2022-08-30T07:46:52;25.50;90.60
1453;DHT22;720;47.738;7.998;2022-08-30T07:49:17;25.70;91.20
1453;DHT22;720;47.738;7.998;2022-08-30T07:51:45;25.90;89.60
1453;DHT22;720;47.738;7.998;2022-08-30T07:54:11;26.00;85.90
1453;DHT22;720;47.738;7.998;2022-08-30T07:56:37;26.10;84.40
1453;DHT22;720;47.738;7.998;2022-08-30T07:59:03;26.20;86.40
1453;DHT22;720;47.738;7.998;2022-08-30T08:01:28;26.20;84.10
1453;DHT22;720;47.738;7.998;2022-08-30T08:03:54;26.40;86.70
1453;DHT22;720;47.738;7.998;2022-08-30T08:06:21;26.50;84.80
1453;DHT22;720;47.738;7.998;2022-08-30T08:08:48;26.60;84.10
1453;DHT22;720;47.738;7.998;2022-08-30T08:11:17;26.90;85.50
1453;DHT22;720;47.738;7.998;2022-08-30T08:13:44;26.90;83.30
1453;DHT22;720;47.738;7.998;2022-08-30T08:16:10;26.80;83.40
1453;DHT22;720;47.738;7.998;2022-08-30T08:18:36;26.80;82.00
1453;DHT22;720;47.738;7.998;2022-08-30T08:21:02;26.80;79.90
1453;DHT22;720;47.738;7.998;2022-08-30T08:23:28;27.10;81.50
1453;DHT22;720;47.738;7.998;2022-08-30T08:25:55;27.90;81.00
1453;DHT22;720;47.738;7.998;2022-08-30T08:28:21;28.60;76.00
1453;DHT22;720;47.738;7.998;2022-08-30T08:30:47;29.10;74.60
1453;DHT22;720;47.738;7.998;2022-08-30T08:33:15;29.10;74.20
1453;DHT22;720;47.738;7.998;2022-08-30T08:35:41;29.10;71.30
1453;DHT22;720;47.738;7.998;2022-08-30T08:38:07;29.00;72.50
1453;DHT22;720;47.738;7.998;2022-08-30T08:41:04;29.50;71.60
1453;DHT22;720;47.738;7.998;2022-08-30T08:43:35;30.70;68.60
1453;DHT22;720;47.738;7.998;2022-08-30T08:46:17;31.20;63.20
1453;DHT22;720;47.738;7.998;2022-08-30T08:48:50;31.40;60.00
1453;DHT22;720;47.738;7.998;2022-08-30T08:51:20;31.60;60.00
1453;DHT22;720;47.738;7.998;2022-08-30T08:55:12;31.90;61.10
1453;DHT22;720;47.738;7.998;2022-08-30T08:57:04;32.10;59.00
1453;DHT22;720;47.738;7.998;2022-08-30T08:59:30;32.00;56.50
1453;DHT22;720;47.738;7.998;2022-08-30T09:02:00;31.30;57.50
1453;DHT22;720;47.738;7.998;2022-08-30T09:04:33;31.10;59.50
1453;DHT22;720;47.738;7.998;2022-08-30T09:07:09;31.00;59.30
1453;DHT22;720;47.738;7.998;2022-08-30T09:09:39;31.10;58.50
1453;DHT22;720;47.738;7.998;2022-08-30T09:12:07;30.70;60.40
1453;DHT22;720;47.738;7.998;2022-08-30T09:14:39;30.10;59.30
1453;DHT22;720;47.738;7.998;2022-08-30T09:17:09;29.20;60.40
1453;DHT22;720;47.738;7.998;2022-08-30T09:22:24;28.20;63.20
1453;DHT22;720;47.738;7.998;2022-08-30T09:27:32;29.50;61.40
1453;DHT22;720;47.738;7.998;2022-08-30T09:30:08;30.40;60.80
1453;DHT22;720;47.738;7.998;2022-08-30T09:32:41;30.70;59.80
1453;DHT22;720;47.738;7.998;2022-08-30T09:35:16;30.30;59.10
1453;DHT22;720;47.738;7.998;2022-08-30T09:37:54;29.90;59.70
1453;DHT22;720;47.738;7.998;2022-08-30T09:40:42;29.40;59.50
1453;DHT22;720;47.738;7.998;2022-08-30T09:43:18;29.10;62.60
1453;DHT22;720;47.738;7.998;2022-08-30T09:45:47;29.20;64.20
1453;DHT22;720;47.738;7.998;2022-08-30T09:56:49;31.90;57.20
1453;DHT22;720;47.738;7.998;2022-08-30T09:59:53;32.20;56.80
1453;DHT22;720;47.738;7.998;2022-08-30T10:05:15;34.20;55.30
1453;DHT22;720;47.738;7.998;2022-08-30T10:19:26;36.40;46.30
1453;DHT22;720;47.738;7.998;2022-08-30T10:22:05;35.50;49.10
1453;DHT22;720;47.738;7.998;2022-08-30T10:24:38;34.50;48.60
1453;DHT22;720;47.738;7.998;2022-08-30T10:27:17;34.20;50.40
1453;DHT22;720;47.738;7.998;2022-08-30T10:30:11;34.20;49.80
1453;DHT22;720;47.738;7.998;2022-08-30T10:32:45;33.80;50.00
1453;DHT22;720;47.738;7.998;2022-08-30T10:35:17;33.70;49.10
1453;DHT22;720;47.738;7.998;2022-08-30T10:37:51;33.60;50.80
1453;DHT22;720;47.738;7.998;2022-08-30T10:43:15;33.40;49.80
1453;DHT22;720;47.738;7.998;2022-08-30T10:45:45;32.30;51.40
1453;DHT22;720;47.738;7.998;2022-08-30T10:48:15;31.90;52.60
1453;DHT22;720;47.738;7.998;2022-08-30T10:50:48;31.70;52.60
1453;DHT22;720;47.738;7.998;2022-08-30T10:55:59;31.70;52.40
1453;DHT22;720;47.738;7.998;2022-08-30T10:58:26;31.90;53.20
1453;DHT22;720;47.738;7.998;2022-08-30T11:12:06;31.20;52.00
1453;DHT22;720;47.738;7.998;2022-08-30T11:14:43;30.60;53.20
1453;DHT22;720;47.738;7.998;2022-08-30T11:17:28;29.90;55.10
1453;DHT22;720;47.738;7.998;2022-08-30T11:19:57;29.40;57.20
1453;DHT22;720;47.738;7.998;2022-08-30T11:22:33;29.30;53.10
1453;DHT22;720;47.738;7.998;2022-08-30T11:33:03;29.60;55.20
1453;DHT22;720;47.738;7.998;2022-08-30T11:35:47;29.60;53.30
1453;DHT22;720;47.738;7.998;2022-08-30T12:00:32;28.50;56.50
1453;DHT22;720;47.738;7.998;2022-08-30T12:10:42;29.70;53.80
1453;DHT22;720;47.738;7.998;2022-08-30T12:13:09;29.60;55.10
1453;DHT22;720;47.738;7.998;2022-08-30T12:15:55;29.60;53.70
1453;DHT22;720;47.738;7.998;2022-08-30T12:18:26;29.40;53.90
1453;DHT22;720;47.738;7.998;2022-08-30T12:21:08;29.50;58.40
1453;DHT22;720;47.738;7.998;2022-08-30T12:29:06;28.60;56.20
1453;DHT22;720;47.738;7.998;2022-08-30T12:31:32;28.60;61.60
1453;DHT22;720;47.738;7.998;2022-08-30T12:34:03;28.40;58.30
1453;DHT22;720;47.738;7.998;2022-08-30T12:36:47;28.20;57.80
1453;DHT22;720;47.738;7.998;2022-08-30T12:39:21;27.90;58.10
1453;DHT22;720;47.738;7.998;2022-08-30T12:41:47;27.60;60.10
1453;DHT22;720;47.738;7.998;2022-08-30T12:44:20;27.50;58.90
1453;DHT22;720;47.738;7.998;2022-08-30T12:46:49;27.50;64.70
1453;DHT22;720;47.738;7.998;2022-08-30T12:49:17;27.50;61.00
1453;DHT22;720;47.738;7.998;2022-08-30T12:51:44;27.60;64.00
1453;DHT22;720;47.738;7.998;2022-08-30T12:54:25;27.70;61.90
1453;DHT22;720;47.738;7.998;2022-08-30T12:56:59;27.60;60.70
1453;DHT22;720;47.738;7.998;2022-08-30T13:02:12;27.60;64.20
1453;DHT22;720;47.738;7.998;2022-08-30T13:04:39;27.70;61.00
1453;DHT22;720;47.738;7.998;2022-08-30T13:07:05;27.80;59.90
1453;DHT22;720;47.738;7.998;2022-08-30T13:09:33;27.90;59.30
1453;DHT22;720;47.738;7.998;2022-08-30T13:12:03;28.10;58.60
1453;DHT22;720;47.738;7.998;2022-08-30T13:14:41;28.40;60.50
1453;DHT22;720;47.738;7.998;2022-08-30T13:17:23;28.70;58.70
1453;DHT22;720;47.738;7.998;2022-08-30T13:22:41;28.50;59.30
1453;DHT22;720;47.738;7.998;2022-08-30T13:25:08;28.30;59.60
1453;DHT22;720;47.738;7.998;2022-08-30T13:27:36;28.00;59.30
1453;DHT22;720;47.738;7.998;2022-08-30T13:30:12;27.80;61.10
1453;DHT22;720;47.738;7.998;2022-08-30T13:32:39;27.70;61.20
1453;DHT22;720;47.738;7.998;2022-08-30T13:35:05;27.70;61.80
1453;DHT22;720;47.738;7.998;2022-08-30T13:37:32;27.70;64.50
1453;DHT22;720;47.738;7.998;2022-08-30T13:39:58;27.70;63.70
1453;DHT22;720;47.738;7.998;2022-08-30T13:42:24;27.80;63.40
1453;DHT22;720;47.738;7.998;2022-08-30T13:44:50;27.80;63.60
1453;DHT22;720;47.738;7.998;2022-08-30T13:47:17;27.80;64.70
1453;DHT22;720;47.738;7.998;2022-08-30T13:49:44;27.80;63.20
1453;DHT22;720;47.738;7.998;2022-08-30T13:52:14;27.70;66.90
1453;DHT22;720;47.738;7.998;2022-08-30T13:54:40;27.70;64.30
1453;DHT22;720;47.738;7.998;2022-08-30T13:57:06;27.60;61.60
1453;DHT22;720;47.738;7.998;2022-08-30T13:59:32;27.40;59.90
1453;DHT22;720;47.738;7.998;2022-08-30T14:01:59;27.00;59.50
1453;DHT22;720;47.738;7.998;2022-08-30T14:04:25;26.70;59.30
1453;DHT22;720;47.738;7.998;2022-08-30T14:06:51;26.30;59.30
1453;DHT22;720;47.738;7.998;2022-08-30T14:09:17;26.20;60.40
1453;DHT22;720;47.738;7.998;2022-08-30T14:11:43;25.90;61.20
1453;DHT22;720;47.738;7.998;2022-08-30T14:14:09;25.80;58.70
1453;DHT22;720;47.738;7.998;2022-08-30T14:16:38;25.60;61.00
1453;DHT22;720;47.738;7.998;2022-08-30T14:19:04;25.40;61.00
1453;DHT22;720;47.738;7.998;2022-08-30T14:21:34;25.20;57.10
1453;DHT22;720;47.738;7.998;2022-08-30T14:24:00;25.00;56.50
1453;DHT22;720;47.738;7.998;2022-08-30T14:26:29;24.50;56.90
1453;DHT22;720;47.738;7.998;2022-08-30T14:28:55;24.30;57.20
1453;DHT22;720;47.738;7.998;2022-08-30T14:31:21;24.10;57.00
1453;DHT22;720;47.738;7.998;2022-08-30T14:33:47;24.20;59.20
1453;DHT22;720;47.738;7.998;2022-08-30T14:36:13;24.10;56.00
1453;DHT22;720;47.738;7.998;2022-08-30T14:38:39;24.20;56.60
1453;DHT22;720;47.738;7.998;2022-08-30T14:41:05;24.20;55.10
1453;DHT22;720;47.738;7.998;2022-08-30T14:43:31;24.40;59.10
1453;DHT22;720;47.738;7.998;2022-08-30T14:45:57;24.50;63.80
1453;DHT22;720;47.738;7.998;2022-08-30T14:48:23;24.50;64.80
1453;DHT22;720;47.738;7.998;2022-08-30T14:50:49;24.50;62.00
1453;DHT22;720;47.738;7.998;2022-08-30T14:53:14;24.50;63.60
1453;DHT22;720;47.738;7.998;2022-08-30T14:55:43;24.50;66.10
1453;DHT22;720;47.738;7.998;2022-08-30T14:58:12;24.50;66.50
1453;DHT22;720;47.738;7.998;2022-08-30T15:00:48;24.60;64.00
1453;DHT22;720;47.738;7.998;2022-08-30T15:03:13;24.60;62.00
1453;DHT22;720;47.738;7.998;2022-08-30T15:05:40;24.70;69.20
1453;DHT22;720;47.738;7.998;2022-08-30T15:08:05;24.50;69.50
1453;DHT22;720;47.738;7.998;2022-08-30T15:10:31;24.20;64.30
1453;DHT22;720;47.738;7.998;2022-08-30T15:12:56;24.20;68.70
1453;DHT22;720;47.738;7.998;2022-08-30T15:15:22;24.20;68.70
1453;DHT22;720;47.738;7.998;2022-08-30T15:17:48;24.20;68.10
1453;DHT22;720;47.738;7.998;2022-08-30T15:20:15;24.20;66.50
1453;DHT22;720;47.738;7.998;2022-08-30T15:22:45;24.10;71.50
1453;DHT22;720;47.738;7.998;2022-08-30T15:25:10;24.00;74.80
1453;DHT22;720;47.738;7.998;2022-08-30T15:27:36;23.70;74.90
1453;DHT22;720;47.738;7.998;2022-08-30T15:30:04;23.30;77.20
1453;DHT22;720;47.738;7.998;2022-08-30T15:32:30;23.10;78.90
1453;DHT22;720;47.738;7.998;2022-08-30T15:34:57;23.00;80.70
1453;DHT22;720;47.738;7.998;2022-08-30T15:37:24;23.00;82.40
1453;DHT22;720;47.738;7.998;2022-08-30T15:39:50;22.90;83.80
1453;DHT22;720;47.738;7.998;2022-08-30T15:42:16;22.80;85.50
1453;DHT22;720;47.738;7.998;2022-08-30T15:44:49;22.80;86.80
1453;DHT22;720;47.738;7.998;2022-08-30T15:47:20;22.90;88.60
1453;DHT22;720;47.738;7.998;2022-08-30T15:49:57;23.00;90.10
1453;DHT22;720;47.738;7.998;2022-08-30T15:52:24;23.00;90.70
1453;DHT22;720;47.738;7.998;2022-08-30T15:54:50;23.10;91.10
1453;DHT22;720;47.738;7.998;2022-08-30T15:57:16;23.20;91.20
1453;DHT22;720;47.738;7.998;2022-08-30T15:59:42;23.30;91.00
1453;DHT22;720;47.738;7.998;2022-08-30T16:02:07;23.40;92.00
1453;DHT22;720;47.738;7.998;2022-08-30T16:04:33;23.50;91.70
1453;DHT22;720;47.738;7.998;2022-08-30T16:06:59;23.60;91.00
1453;DHT22;720;47.738;7.998;2022-08-30T16:09:25;23.60;90.90
1453;DHT22;720;47.738;7.998;2022-08-30T16:11:51;23.60;91.70
1453;DHT22;720;47.738;7.998;2022-08-30T16:14:17;23.70;91.90
1453;DHT22;720;47.738;7.998;2022-08-30T16:16:43;23.80;92.60
1453;DHT22;720;47.738;7.998;2022-08-30T16:19:10;23.70;93.30
1453;DHT22;720;47.738;7.998;2022-08-30T16:21:37;23.70;93.80
1453;DHT22;720;47.738;7.998;2022-08-30T16:24:05;23.60;94.40
1453;DHT22;720;47.738;7.998;2022-08-30T16:26:33;23.60;94.80
1453;DHT22;720;47.738;7.998;2022-08-30T16:28:59;23.60;94.90
1453;DHT22;720;47.738;7.998;2022-08-30T16:31:26;23.50;95.50
1453;DHT22;720;47.738;7.998;2022-08-30T16:33:52;23.50;95.60
1453;DHT22;720;47.738;7.998;2022-08-30T16:36:19;23.40;95.80
1453;DHT22;720;47.738;7.998;2022-08-30T16:38:44;23.40;96.00
1453;DHT22;720;47.738;7.998;2022-08-30T16:41:12;23.30;96.10
1453;DHT22;720;47.738;7.998;2022-08-30T16:43:39;23.30;95.80
1453;DHT22;720;47.738;7.998;2022-08-30T16:46:07;23.30;96.40
1453;DHT22;720;47.738;7.998;2022-08-30T16:48:34;23.30;96.70
1453;DHT22;720;47.738;7.998;2022-08-30T16:51:01;23.30;96.50
1453;DHT22;720;47.738;7.998;2022-08-30T16:53:29;23.30;95.20
1453;DHT22;720;47.738;7.998;2022-08-30T16:55:55;23.40;95.50
1453;DHT22;720;47.738;7.998;2022-08-30T16:58:21;23.40;95.20
1453;DHT22;720;47.738;7.998;2022-08-30T17:00:50;23.40;95.10
1453;DHT22;720;47.738;7.998;2022-08-30T17:03:16;23.30;95.70
1453;DHT22;720;47.738;7.998;2022-08-30T17:05:43;23.10;92.10
1453;DHT22;720;47.738;7.998;2022-08-30T17:08:09;23.10;91.20
1453;DHT22;720;47.738;7.998;2022-08-30T17:10:35;23.00;90.90
1453;DHT22;720;47.738;7.998;2022-08-30T17:13:01;23.00;86.00
1453;DHT22;720;47.738;7.998;2022-08-30T17:15:27;22.90;84.90
1453;DHT22;720;47.738;7.998;2022-08-30T17:17:53;22.70;84.50
1453;DHT22;720;47.738;7.998;2022-08-30T17:20:19;22.60;82.90
1453;DHT22;720;47.738;7.998;2022-08-30T17:22:45;22.50;79.50
1453;DHT22;720;47.738;7.998;2022-08-30T17:25:11;22.50;79.00
1453;DHT22;720;47.738;7.998;2022-08-30T17:27:36;22.50;79.30
1453;DHT22;720;47.738;7.998;2022-08-30T17:30:04;22.60;83.40
1453;DHT22;720;47.738;7.998;2022-08-30T17:32:30;22.60;91.20
1453;DHT22;720;47.738;7.998;2022-08-30T17:38:21;20.80;96.90
1453;DHT22;720;47.738;7.998;2022-08-30T17:40:47;20.10;98.30
1453;DHT22;720;47.738;7.998;2022-08-30T17:43:12;20.00;99.40
1453;DHT22;720;47.738;7.998;2022-08-30T17:45:38;19.80;99.90
1453;DHT22;720;47.738;7.998;2022-08-30T17:48:04;19.50;99.90
1453;DHT22;720;47.738;7.998;2022-08-30T17:50:32;18.90;99.90
1453;DHT22;720;47.738;7.998;2022-08-30T17:52:58;18.40;99.90
1453;DHT22;720;47.738;7.998;2022-08-30T17:55:24;18.30;99.90
1453;DHT22;720;47.738;7.998;2022-08-30T17:57:50;18.30;99.90
1453;DHT22;720;47.738;7.998;2022-08-30T18:00:16;18.30;99.90
1453;DHT22;720;47.738;7.998;2022-08-30T18:02:41;18.30;99.90